createdAt,value
2022-10-15T00:00:26.796Z,10.00
2022-10-15T00:05:34.272Z,10.00
2022-10-15T00:10:41.057Z,10.10
2022-10-15T00:15:46.036Z,10.20
2022-10-15T00:20:50.774Z,10.30
2022-10-15T00:26:03.170Z,10.30
2022-10-15T00:31:07.576Z,10.40
2022-10-15T00:36:17.199Z,10.40
2022-10-15T00:41:22.057Z,10.50
2022-10-15T00:46:28.591Z,10.40
2022-10-15T00:51:37.645Z,10.40
2022-10-15T00:56:43.055Z,10.30
2022-10-15T01:01:49.140Z,10.30
2022-10-15T01:06:58.354Z,10.40
2022-10-15T01:12:02.877Z,10.40
2022-10-15T01:17:13.950Z,10.50
2022-10-15T01:22:23.680Z,10.50
2022-10-15T01:27:36.800Z,10.50
2022-10-15T01:32:48.805Z,10.50
2022-10-15T01:37:58.035Z,10.50
2022-10-15T01:43:04.645Z,10.50
2022-10-15T01:48:12.031Z,10.70
2022-10-15T01:53:18.567Z,10.70
2022-10-15T01:58:26.296Z,10.70
2022-10-15T02:03:50.295Z,10.80
2022-10-15T02:09:07.299Z,10.80
2022-10-15T02:14:17.691Z,10.80
2022-10-15T02:19:28.661Z,10.80
2022-10-15T02:24:39.003Z,10.80
2022-10-15T02:29:44.177Z,10.80
2022-10-15T02:34:54.880Z,10.80
2022-10-15T02:39:58.130Z,10.90
2022-10-15T02:45:00.764Z,10.90
2022-10-15T02:50:05.493Z,11.00
2022-10-15T02:55:08.833Z,11.00
2022-10-15T03:00:12.132Z,11.00
2022-10-15T03:05:15.796Z,11.00
2022-10-15T03:10:18.060Z,11.00
2022-10-15T03:15:20.810Z,10.90
2022-10-15T03:20:27.125Z,10.90
2022-10-15T03:25:31.242Z,10.90
2022-10-15T03:30:33.331Z,10.90
2022-10-15T03:35:39.799Z,10.90
2022-10-15T03:40:42.687Z,10.80
2022-10-15T03:45:44.942Z,10.80
2022-10-15T03:50:48.444Z,10.80
2022-10-15T03:55:50.535Z,10.80
2022-10-15T04:00:54.085Z,10.80
2022-10-15T04:05:59.832Z,10.80
2022-10-15T04:11:04.985Z,10.70
2022-10-15T04:16:07.897Z,10.80
2022-10-15T04:21:11.918Z,10.80
2022-10-15T04:26:13.998Z,10.80
2022-10-15T04:31:16.084Z,10.80
2022-10-15T04:36:19.555Z,10.80
2022-10-15T04:41:24.348Z,10.70
2022-10-15T04:46:27.085Z,10.60
2022-10-15T04:51:30.649Z,10.70
2022-10-15T04:56:32.740Z,10.80
2022-10-15T05:01:34.840Z,10.80
2022-10-15T05:06:38.324Z,10.90
2022-10-15T05:11:40.568Z,10.90
2022-10-15T05:16:42.673Z,10.80
2022-10-15T05:21:46.519Z,10.80
2022-10-15T05:26:49.258Z,10.90
2022-10-15T05:31:52.683Z,10.90
2022-10-15T05:36:56.239Z,11.00
2022-10-15T05:41:58.504Z,11.10
2022-10-15T05:47:00.582Z,11.10
2022-10-15T05:52:04.073Z,11.20
2022-10-15T05:57:06.154Z,11.30
2022-10-15T06:02:08.385Z,11.30
2022-10-15T06:07:17.622Z,11.30
2022-10-15T06:12:20.798Z,11.30
2022-10-15T06:17:26.756Z,11.40
2022-10-15T06:22:32.661Z,11.50
2022-10-15T06:27:35.104Z,11.70
2022-10-15T06:32:38.340Z,11.80
2022-10-15T06:37:42.402Z,11.80
2022-10-15T06:42:48.392Z,11.90
2022-10-15T06:47:51.548Z,11.90
2022-10-15T06:58:04.518Z,11.90
2022-10-15T07:03:12.777Z,11.90
2022-10-15T07:08:19.352Z,12.00
2022-10-15T07:13:28.660Z,12.10
2022-10-15T07:18:34.047Z,12.20
2022-10-15T07:23:39.542Z,12.10
2022-10-15T07:28:43.234Z,12.20
2022-10-15T07:33:46.703Z,12.30
2022-10-15T07:38:54.531Z,12.50
2022-10-15T07:44:00.624Z,12.50
2022-10-15T07:49:07.553Z,12.60
2022-10-15T07:54:14.785Z,12.70
2022-10-15T07:59:24.250Z,12.80
2022-10-15T08:04:30.973Z,12.80
2022-10-15T08:09:37.596Z,12.80
2022-10-15T08:14:42.785Z,12.90
2022-10-15T08:19:48.314Z,13.10
2022-10-15T08:24:54.753Z,13.20
2022-10-15T08:29:58.829Z,13.30
2022-10-15T08:35:03.639Z,13.50
2022-10-15T08:40:16.745Z,13.80
2022-10-15T08:45:27.888Z,14.10
2022-10-15T08:50:43.686Z,14.20
2022-10-15T08:55:52.415Z,14.30
2022-10-15T09:01:03.317Z,14.50
2022-10-15T09:06:18.120Z,14.40
2022-10-15T09:11:39.226Z,14.50
2022-10-15T09:16:44.712Z,14.60
2022-10-15T09:21:50.453Z,14.70
2022-10-15T09:27:08.657Z,14.80
2022-10-15T09:32:21.918Z,15.00
2022-10-15T09:37:33.131Z,15.00
2022-10-15T09:42:43.261Z,15.10
2022-10-15T09:47:49.497Z,15.10
2022-10-15T09:53:06.703Z,14.80
2022-10-15T09:58:21.383Z,14.60
2022-10-15T10:03:28.333Z,14.50
2022-10-15T10:08:36.871Z,14.30
2022-10-15T10:13:59.566Z,14.10
2022-10-15T10:19:14.870Z,13.80
2022-10-15T10:24:26.728Z,13.70
2022-10-15T10:29:42.287Z,13.80
2022-10-15T10:34:52.494Z,13.80
2022-10-15T10:40:00.666Z,14.00
2022-10-15T10:45:27.485Z,14.10
2022-10-15T10:50:44.769Z,14.30
2022-10-15T10:55:50.143Z,14.50
2022-10-15T11:01:01.046Z,14.70
2022-10-15T11:06:26.117Z,14.80
2022-10-15T11:11:37.179Z,15.00
2022-10-15T11:16:54.389Z,15.00
2022-10-15T11:27:41.769Z,14.00
2022-10-15T11:33:08.697Z,13.60
2022-10-15T11:38:25.890Z,13.50
2022-10-15T11:43:43.318Z,13.20
2022-10-15T11:49:04.049Z,13.00
2022-10-15T11:54:18.462Z,13.00
2022-10-15T11:59:35.990Z,12.90
2022-10-15T12:04:52.403Z,12.80
2022-10-15T12:10:02.794Z,12.50
2022-10-15T12:15:22.307Z,12.60
2022-10-15T12:20:33.394Z,12.60
2022-10-15T12:25:46.307Z,12.50
2022-10-15T12:30:59.210Z,12.40
2022-10-15T12:36:11.947Z,12.40
2022-10-15T12:41:18.528Z,12.40
2022-10-15T12:46:24.432Z,12.40
2022-10-15T12:51:41.523Z,12.50
2022-10-15T12:56:47.374Z,12.60
2022-10-15T13:01:55.850Z,12.50
2022-10-15T13:07:08.581Z,12.50
2022-10-15T13:12:27.829Z,12.50
2022-10-15T13:17:32.922Z,12.50
2022-10-15T13:22:42.045Z,12.60
2022-10-15T13:27:48.230Z,12.60
2022-10-15T13:32:55.281Z,12.50
2022-10-15T13:38:02.302Z,12.60
2022-10-15T13:43:09.677Z,12.60
2022-10-15T13:48:14.719Z,12.70
2022-10-15T13:53:31.260Z,12.80
2022-10-15T13:58:37.079Z,12.80
2022-10-15T14:03:42.467Z,12.80
2022-10-15T14:08:54.655Z,12.80
2022-10-15T14:14:00.936Z,12.80
2022-10-15T14:19:16.224Z,12.80
2022-10-15T14:24:26.878Z,12.90
2022-10-15T14:29:42.135Z,12.80
2022-10-15T14:34:47.375Z,12.80
2022-10-15T14:39:55.285Z,13.00
2022-10-15T14:45:02.492Z,13.00
2022-10-15T14:50:13.190Z,12.90
2022-10-15T14:55:33.984Z,12.90
2022-10-15T15:00:44.919Z,12.90
2022-10-15T15:05:53.810Z,12.80
2022-10-15T15:11:04.880Z,12.90
2022-10-15T15:16:10.254Z,12.90
2022-10-15T15:21:21.430Z,12.90
2022-10-15T15:26:30.281Z,12.90
2022-10-15T15:31:36.297Z,12.90
2022-10-15T15:36:43.638Z,12.90
2022-10-15T15:41:53.526Z,12.90
2022-10-15T15:47:00.025Z,12.80
2022-10-15T15:52:07.267Z,12.80
2022-10-15T15:57:15.118Z,12.90
2022-10-15T16:02:20.493Z,13.00
2022-10-15T16:07:28.388Z,12.90
2022-10-15T16:12:36.473Z,12.90
2022-10-15T16:17:40.599Z,12.90
2022-10-15T16:22:47.336Z,13.00
2022-10-15T16:27:57.937Z,13.00
2022-10-15T16:33:04.538Z,13.00
2022-10-15T16:38:11.057Z,13.00
2022-10-15T16:43:23.099Z,12.90
2022-10-15T16:48:32.650Z,12.90
2022-10-15T16:53:39.905Z,12.90
2022-10-15T16:58:48.188Z,12.90
2022-10-15T17:03:55.754Z,12.80
2022-10-15T17:09:04.174Z,12.80
2022-10-15T17:14:20.640Z,12.80
2022-10-15T17:19:33.218Z,12.90
2022-10-15T17:24:39.702Z,12.90
2022-10-15T17:29:50.801Z,12.90
2022-10-15T17:34:59.089Z,12.80
2022-10-15T17:40:09.225Z,12.70
2022-10-15T17:45:15.753Z,12.70
2022-10-15T17:50:22.740Z,12.70
2022-10-15T17:55:27.906Z,12.60
2022-10-15T18:00:37.722Z,12.60
2022-10-15T18:05:42.260Z,12.60
2022-10-15T18:10:49.421Z,12.60
2022-10-15T18:15:59.412Z,12.70
2022-10-15T18:21:07.853Z,12.60
2022-10-15T18:26:18.777Z,12.60
2022-10-15T18:31:32.446Z,12.70
2022-10-15T18:36:38.753Z,12.60
2022-10-15T18:46:54.488Z,12.60
2022-10-15T18:52:06.524Z,12.60
2022-10-15T18:57:22.043Z,12.70
2022-10-15T19:02:35.320Z,12.80
2022-10-15T19:07:45.612Z,12.90
2022-10-15T19:12:50.770Z,12.90
2022-10-15T19:17:58.947Z,12.90
2022-10-15T19:23:10.669Z,12.90
2022-10-15T19:28:21.508Z,12.90
2022-10-15T19:33:32.470Z,12.90
2022-10-15T19:38:41.909Z,12.90
2022-10-15T19:43:47.594Z,13.00
2022-10-15T19:48:53.652Z,12.90
2022-10-15T19:54:03.452Z,13.00
2022-10-15T19:59:10.452Z,13.00
2022-10-15T20:04:19.886Z,12.90
2022-10-15T20:09:24.535Z,12.90
2022-10-15T20:14:31.856Z,12.90
2022-10-15T20:19:41.292Z,12.90
2022-10-15T20:24:45.737Z,12.90
2022-10-15T20:29:51.875Z,12.80
2022-10-15T20:35:03.781Z,12.80
2022-10-15T20:40:08.472Z,12.80
2022-10-15T20:45:15.195Z,12.70
2022-10-15T20:50:30.193Z,12.70
2022-10-15T20:55:32.431Z,12.60
2022-10-15T21:00:34.684Z,12.60
2022-10-15T21:05:40.162Z,12.50
2022-10-15T21:10:42.295Z,12.50
2022-10-15T21:15:44.572Z,12.40
2022-10-15T21:20:48.781Z,12.40
2022-10-15T21:25:51.133Z,12.40
2022-10-15T21:30:53.362Z,12.30
2022-10-15T21:35:59.945Z,12.20
2022-10-15T21:41:02.766Z,12.10
2022-10-15T21:46:07.739Z,12.00
2022-10-15T21:51:18.173Z,11.90
2022-10-15T21:56:24.939Z,11.90
2022-10-15T22:01:29.630Z,12.00
2022-10-15T22:06:36.432Z,12.00
2022-10-15T22:11:43.283Z,12.10
2022-10-15T22:16:49.534Z,12.10
2022-10-15T22:21:54.749Z,12.00
2022-10-15T22:26:57.785Z,11.90
2022-10-15T22:32:01.804Z,11.80
2022-10-15T22:37:08.610Z,11.80
2022-10-15T22:42:12.549Z,11.70
2022-10-15T22:47:15.637Z,11.70
2022-10-15T22:52:20.315Z,11.60
2022-10-15T22:57:23.339Z,11.60
2022-10-15T23:02:27.000Z,11.60
2022-10-15T23:07:31.989Z,11.60
2022-10-15T23:12:35.154Z,11.60
2022-10-15T23:17:37.761Z,11.60
2022-10-15T23:22:47.900Z,11.50
2022-10-15T23:27:51.207Z,11.50
2022-10-15T23:32:55.146Z,11.40
2022-10-15T23:38:02.236Z,11.30
2022-10-15T23:43:04.994Z,11.30
2022-10-15T23:48:08.769Z,11.30
2022-10-15T23:53:14.043Z,11.20
2022-10-15T23:58:19.033Z,11.20
